Troy, Ohio
Current Conditions -  °F | °C
As of 10:56 AM on Thursday 30 Oct 2014 (Local Time) from KDAY Reporting Station
Overcast Overcast  
Wind Chill: 47°   Ceiling: 3700
Heat Index: 47°   Visibility: 10mi
Dew Point: 37°   Wind: 0mph
Humidity: 68%   Direction: NA
Pressure: 30.17"   Gusts: NA
Location:  40.04°N, 84.2°W
Report Text: KDAY 301456Z 00000KT 10SM FEW020 OVC037 08/03 A3017 RMK AO2 SLP219 BINOVC T00830028 50003
Loading
Personal Weather Stations






























Interactive Weather Map
Tropical Storm Tracking
New forecast layout! Learn more

10-Day Weather Forecast

Advertisements
Track Severe Weather on mobile